createdAt,value
2022-12-03T00:02:06.805Z,60.90
2022-12-03T00:04:37.211Z,61.00
2022-12-03T00:07:07.457Z,61.00
2022-12-03T00:09:37.658Z,60.70
2022-12-03T00:12:08.132Z,60.70
2022-12-03T00:14:43.022Z,60.80
2022-12-03T00:17:14.880Z,60.70
2022-12-03T00:19:45.172Z,60.60
2022-12-03T00:22:15.454Z,60.50
2022-12-03T00:24:45.785Z,60.50
2022-12-03T00:27:16.036Z,60.60
2022-12-03T00:29:46.256Z,60.60
2022-12-03T00:32:16.504Z,60.60
2022-12-03T00:34:47.445Z,60.50
2022-12-03T00:37:17.741Z,60.40
2022-12-03T00:39:47.949Z,60.30
2022-12-03T00:42:18.198Z,59.80
2022-12-03T00:44:48.445Z,59.70
2022-12-03T00:47:18.722Z,59.80
2022-12-03T00:49:48.953Z,59.90
2022-12-03T00:52:19.292Z,60.00
2022-12-03T00:54:49.536Z,60.10
2022-12-03T00:57:19.665Z,60.20
2022-12-03T00:59:49.829Z,60.20
2022-12-03T01:02:20.039Z,60.30
2022-12-03T01:04:51.267Z,60.10
2022-12-03T01:07:21.777Z,59.60
2022-12-03T01:09:52.323Z,59.60
2022-12-03T01:12:22.704Z,59.70
2022-12-03T01:14:53.285Z,59.80
2022-12-03T01:17:23.997Z,60.00
2022-12-03T01:19:54.364Z,60.10
2022-12-03T01:22:24.911Z,60.20
2022-12-03T01:24:55.837Z,60.30
2022-12-03T01:27:26.233Z,60.30
2022-12-03T01:29:56.468Z,60.40
2022-12-03T01:32:26.632Z,60.30
2022-12-03T01:34:58.468Z,60.20
2022-12-03T01:37:29.612Z,60.00
2022-12-03T01:39:59.777Z,60.00
2022-12-03T01:42:42.265Z,60.00
2022-12-03T01:45:22.352Z,59.60
2022-12-03T01:47:53.016Z,59.60
2022-12-03T01:50:43.917Z,59.60
2022-12-03T01:53:19.978Z,59.50
2022-12-03T01:55:50.811Z,59.50
2022-12-03T01:58:30.748Z,59.50
2022-12-03T02:01:13.942Z,59.50
2022-12-03T02:03:45.291Z,59.40
2022-12-03T02:06:24.493Z,59.50
2022-12-03T02:09:02.027Z,59.50
2022-12-03T02:11:36.501Z,59.50
2022-12-03T02:14:11.267Z,59.40
2022-12-03T02:16:44.137Z,59.30
2022-12-03T02:19:29.308Z,59.10
2022-12-03T02:22:28.417Z,58.90
2022-12-03T02:25:02.009Z,59.20
2022-12-03T02:27:32.395Z,59.30
2022-12-03T02:30:02.653Z,59.20
2022-12-03T02:32:33.043Z,59.20
2022-12-03T02:35:03.313Z,59.20
2022-12-03T02:37:37.487Z,59.30
2022-12-03T02:40:13.253Z,59.30
2022-12-03T02:42:43.916Z,59.50
2022-12-03T02:45:20.313Z,59.40
2022-12-03T02:48:05.896Z,58.60
2022-12-03T02:50:39.986Z,58.60
2022-12-03T02:53:16.176Z,58.60
2022-12-03T02:55:47.385Z,58.60
2022-12-03T02:58:18.190Z,58.60
2022-12-03T03:00:48.935Z,58.50
2022-12-03T03:03:20.875Z,58.20
2022-12-03T03:05:52.780Z,58.00
2022-12-03T03:08:23.437Z,57.90
2022-12-03T03:10:53.998Z,57.60
2022-12-03T03:13:24.773Z,58.10
2022-12-03T03:15:55.359Z,57.50
2022-12-03T03:18:25.799Z,57.40
2022-12-03T03:20:56.265Z,57.40
2022-12-03T03:23:27.519Z,57.60
2022-12-03T03:26:13.383Z,57.80
2022-12-03T03:28:48.466Z,57.80
2022-12-03T03:31:24.028Z,58.00
2022-12-03T03:33:55.084Z,58.00
2022-12-03T03:36:26.686Z,57.90
2022-12-03T03:38:57.140Z,57.90
2022-12-03T03:41:29.184Z,58.00
2022-12-03T03:44:00.417Z,58.10
2022-12-03T03:46:31.714Z,58.20
2022-12-03T03:49:02.158Z,58.20
2022-12-03T03:51:32.927Z,58.20
2022-12-03T03:54:04.254Z,58.30
2022-12-03T03:56:36.543Z,58.30
2022-12-03T03:59:07.142Z,58.30
2022-12-03T04:01:38.112Z,58.30
2022-12-03T04:04:13.647Z,58.30
2022-12-03T04:06:43.925Z,58.10
2022-12-03T04:09:14.183Z,58.10
2022-12-03T04:12:02.536Z,58.10
2022-12-03T04:14:32.794Z,58.10
2022-12-03T04:17:04.157Z,58.30
2022-12-03T04:19:34.399Z,58.30
2022-12-03T04:22:23.116Z,58.40
2022-12-03T04:24:53.679Z,58.30
2022-12-03T04:27:42.516Z,58.30
2022-12-03T04:30:13.140Z,58.20
2022-12-03T04:33:01.323Z,58.10
2022-12-03T04:35:46.868Z,58.00
2022-12-03T04:38:24.315Z,58.10
2022-12-03T04:41:03.472Z,58.20
2022-12-03T04:43:57.363Z,58.40
2022-12-03T04:46:27.612Z,58.30
2022-12-03T04:48:57.880Z,58.30
2022-12-03T04:51:28.029Z,58.30
2022-12-03T04:53:58.336Z,58.30
2022-12-03T04:56:28.511Z,58.30
2022-12-03T04:58:58.766Z,58.30
2022-12-03T05:01:29.080Z,58.30
2022-12-03T05:03:59.468Z,58.20
2022-12-03T05:06:29.698Z,58.00
2022-12-03T05:08:59.894Z,58.00
2022-12-03T05:11:30.118Z,57.90
2022-12-03T05:14:00.409Z,57.90
2022-12-03T05:16:30.727Z,58.00
2022-12-03T05:19:01.110Z,58.00
2022-12-03T05:21:31.611Z,58.10
2022-12-03T05:24:02.044Z,58.10
2022-12-03T05:26:32.283Z,58.10
2022-12-03T05:29:02.595Z,58.10
2022-12-03T05:31:38.573Z,58.10
2022-12-03T05:34:08.768Z,58.00
2022-12-03T05:36:38.967Z,57.90
2022-12-03T05:39:09.141Z,58.00
2022-12-03T05:41:57.412Z,58.10
2022-12-03T05:44:27.646Z,58.10
2022-12-03T05:46:57.893Z,58.10
2022-12-03T05:49:28.280Z,58.10
2022-12-03T05:51:58.934Z,58.10
2022-12-03T05:54:29.524Z,58.10
2022-12-03T05:56:59.845Z,58.10
2022-12-03T05:59:30.273Z,58.00
2022-12-03T06:02:00.492Z,58.00
2022-12-03T06:04:30.736Z,57.90
2022-12-03T06:07:01.011Z,57.90
2022-12-03T06:09:31.280Z,57.90
2022-12-03T06:12:02.541Z,57.90
2022-12-03T06:14:33.949Z,57.90
2022-12-03T06:17:05.086Z,57.90
2022-12-03T06:19:36.305Z,57.90
2022-12-03T06:22:06.735Z,57.80
2022-12-03T06:24:37.047Z,57.80
2022-12-03T06:27:07.355Z,57.80
2022-12-03T06:29:38.078Z,58.00
2022-12-03T06:32:08.899Z,57.50
2022-12-03T06:34:39.287Z,57.40
2022-12-03T06:37:09.518Z,57.30
2022-12-03T06:39:39.797Z,57.30
2022-12-03T06:42:09.972Z,57.20
2022-12-03T06:44:40.592Z,57.40
2022-12-03T06:47:10.789Z,57.30
2022-12-03T06:49:41.188Z,57.20
2022-12-03T06:52:11.730Z,57.00
2022-12-03T06:54:41.968Z,56.70
2022-12-03T06:57:12.211Z,56.90
2022-12-03T06:59:42.528Z,56.60
2022-12-03T07:02:14.502Z,56.70
2022-12-03T07:04:46.412Z,56.50
2022-12-03T07:07:17.006Z,56.70
2022-12-03T07:09:47.219Z,56.50
2022-12-03T07:12:17.362Z,56.40
2022-12-03T07:14:47.611Z,56.30
2022-12-03T07:17:17.901Z,56.60
2022-12-03T07:19:48.167Z,56.70
2022-12-03T07:22:18.415Z,56.60
2022-12-03T07:24:48.592Z,56.80
2022-12-03T07:27:18.836Z,56.80
2022-12-03T07:29:49.018Z,56.90
2022-12-03T07:32:19.273Z,57.00
2022-12-03T07:34:49.542Z,57.10
2022-12-03T07:37:23.116Z,57.20
2022-12-03T07:39:54.362Z,57.30
2022-12-03T07:42:24.771Z,57.40
2022-12-03T07:44:55.581Z,57.50
2022-12-03T07:47:26.097Z,57.50
2022-12-03T07:49:56.565Z,57.50
2022-12-03T07:52:27.118Z,57.50
2022-12-03T07:54:57.481Z,57.50
2022-12-03T07:57:27.648Z,57.50
2022-12-03T07:59:57.866Z,57.50
2022-12-03T08:02:28.183Z,57.50
2022-12-03T08:04:58.455Z,57.40
2022-12-03T08:07:28.652Z,57.50
2022-12-03T08:09:59.103Z,57.60
2022-12-03T08:12:43.898Z,57.70
2022-12-03T08:15:21.737Z,58.00
2022-12-03T08:18:00.453Z,58.20
2022-12-03T08:20:39.916Z,58.30
2022-12-03T08:23:18.679Z,58.40
2022-12-03T08:25:49.303Z,58.40
2022-12-03T08:28:29.538Z,58.40
2022-12-03T08:31:11.131Z,58.30
2022-12-03T08:33:43.555Z,58.30
2022-12-03T08:36:26.304Z,58.20
2022-12-03T08:39:29.448Z,58.10
2022-12-03T08:42:44.593Z,58.70
2022-12-03T08:45:41.083Z,57.80
2022-12-03T08:48:34.156Z,58.00
2022-12-03T08:51:07.408Z,58.60
2022-12-03T08:53:40.425Z,58.00
2022-12-03T08:56:19.155Z,58.20
2022-12-03T08:59:20.693Z,58.20
2022-12-03T09:01:52.257Z,58.20
2022-12-03T09:04:49.945Z,58.40
2022-12-03T09:07:36.231Z,58.30
2022-12-03T09:10:06.803Z,58.40
2022-12-03T09:12:37.058Z,58.40
2022-12-03T09:15:07.560Z,58.40
2022-12-03T09:17:37.814Z,58.40
2022-12-03T09:20:09.324Z,58.50
2022-12-03T09:22:39.848Z,58.50
2022-12-03T09:25:10.617Z,58.50
2022-12-03T09:27:40.817Z,58.50
2022-12-03T09:30:11.649Z,58.50
2022-12-03T09:32:41.929Z,58.60
2022-12-03T09:35:12.297Z,58.60
2022-12-03T09:37:42.621Z,58.60
2022-12-03T09:40:13.987Z,58.60
2022-12-03T09:42:44.569Z,58.70
2022-12-03T09:45:17.100Z,58.70
2022-12-03T09:47:50.879Z,58.70
2022-12-03T09:50:27.143Z,58.70
2022-12-03T09:53:00.760Z,58.70
2022-12-03T09:55:32.864Z,58.80
2022-12-03T09:58:03.415Z,58.80
2022-12-03T10:00:34.364Z,58.80
2022-12-03T10:03:08.405Z,58.80
2022-12-03T10:05:39.814Z,58.90
2022-12-03T10:08:15.343Z,58.90
2022-12-03T10:10:45.944Z,58.90
2022-12-03T10:13:25.832Z,59.00
2022-12-03T10:15:59.956Z,59.00
2022-12-03T10:18:38.288Z,59.00
2022-12-03T10:21:22.738Z,58.90
2022-12-03T10:24:12.614Z,59.00
2022-12-03T10:26:43.743Z,59.00
2022-12-03T10:29:36.786Z,59.00
2022-12-03T10:32:13.492Z,59.10
2022-12-03T10:34:44.859Z,59.10
2022-12-03T10:37:17.107Z,59.10
2022-12-03T10:40:09.751Z,59.10
2022-12-03T10:42:42.765Z,59.20
2022-12-03T10:45:16.738Z,59.20
2022-12-03T10:48:06.007Z,59.20
2022-12-03T10:50:37.146Z,59.20
2022-12-03T10:53:08.169Z,59.20
2022-12-03T10:55:41.872Z,59.20
2022-12-03T10:58:34.142Z,59.20
2022-12-03T11:01:08.369Z,59.20
2022-12-03T11:03:39.300Z,59.30
2022-12-03T11:06:11.914Z,59.20
2022-12-03T11:08:56.327Z,59.20
2022-12-03T11:11:30.200Z,59.30
2022-12-03T11:14:01.457Z,59.30
2022-12-03T11:16:43.281Z,59.40
2022-12-03T11:19:18.233Z,59.30
2022-12-03T11:22:06.619Z,59.40
2022-12-03T11:24:42.074Z,59.30
2022-12-03T11:27:12.289Z,59.40
2022-12-03T11:29:51.231Z,59.40
2022-12-03T11:32:45.718Z,59.40
2022-12-03T11:35:26.421Z,59.40
2022-12-03T11:37:56.883Z,59.40
2022-12-03T11:40:34.756Z,59.40
2022-12-03T11:43:12.306Z,59.40
2022-12-03T11:45:42.661Z,59.40
2022-12-03T11:48:17.003Z,59.40
2022-12-03T11:50:55.714Z,59.40
2022-12-03T11:53:32.854Z,59.40
2022-12-03T11:56:12.684Z,59.40
2022-12-03T11:58:46.972Z,59.40
2022-12-03T12:01:18.287Z,59.40
2022-12-03T12:03:51.872Z,59.50
2022-12-03T12:06:24.013Z,59.50
2022-12-03T12:08:54.196Z,59.50
2022-12-03T12:11:32.207Z,59.50
2022-12-03T12:14:03.337Z,59.50
2022-12-03T12:16:44.797Z,59.60
2022-12-03T12:19:36.370Z,59.50
2022-12-03T12:22:21.745Z,59.50
2022-12-03T12:24:55.208Z,59.50
2022-12-03T12:27:36.337Z,59.60
2022-12-03T12:30:20.959Z,59.60
2022-12-03T12:33:14.278Z,59.60
2022-12-03T12:35:44.953Z,59.50
2022-12-03T12:38:21.844Z,59.70
2022-12-03T12:40:52.846Z,59.70
2022-12-03T12:43:34.612Z,59.70
2022-12-03T12:49:13.098Z,59.70
2022-12-03T12:51:47.978Z,59.70
2022-12-03T12:54:19.990Z,59.60
2022-12-03T12:56:52.298Z,59.70
2022-12-03T12:59:26.169Z,59.70
2022-12-03T13:01:56.752Z,59.70
2022-12-03T13:04:29.602Z,60.40
2022-12-03T13:06:59.805Z,59.70
2022-12-03T13:09:30.349Z,59.70
2022-12-03T13:12:02.900Z,59.70
2022-12-03T13:14:37.492Z,59.70
2022-12-03T13:17:33.860Z,59.80
2022-12-03T13:20:15.961Z,59.70
2022-12-03T13:22:48.359Z,59.80
2022-12-03T13:28:31.901Z,59.70
2022-12-03T13:31:25.514Z,59.90
2022-12-03T13:33:56.918Z,59.80
2022-12-03T13:36:55.468Z,59.90
2022-12-03T13:39:40.494Z,59.90
2022-12-03T13:42:40.803Z,59.90
2022-12-03T13:45:16.890Z,59.90
2022-12-03T13:47:48.330Z,59.90
2022-12-03T13:50:33.633Z,59.90
2022-12-03T13:53:25.232Z,59.90
2022-12-03T13:56:16.962Z,60.00
2022-12-03T13:58:47.249Z,60.00
2022-12-03T14:01:20.441Z,60.00
2022-12-03T14:03:51.437Z,60.00
2022-12-03T14:06:21.622Z,60.00
2022-12-03T14:08:52.050Z,60.00
2022-12-03T14:11:40.159Z,60.00
2022-12-03T14:14:10.796Z,60.00
2022-12-03T14:16:41.169Z,60.00
2022-12-03T14:19:11.844Z,60.00
2022-12-03T14:21:42.340Z,60.00
2022-12-03T14:24:12.813Z,60.10
2022-12-03T14:26:43.203Z,60.00
2022-12-03T14:29:13.500Z,60.10
2022-12-03T14:31:43.774Z,60.10
2022-12-03T14:34:14.123Z,60.10
2022-12-03T14:36:44.378Z,60.10
2022-12-03T14:39:14.569Z,60.90
2022-12-03T14:42:02.649Z,60.10
2022-12-03T14:44:32.834Z,60.10
2022-12-03T14:47:03.478Z,60.20
2022-12-03T14:49:33.775Z,60.20
2022-12-03T14:52:04.119Z,60.20
2022-12-03T14:54:34.406Z,60.20
2022-12-03T14:57:04.793Z,60.20
2022-12-03T14:59:35.117Z,60.30
2022-12-03T15:02:05.376Z,60.20
2022-12-03T15:04:36.359Z,60.20
2022-12-03T15:07:06.739Z,60.30
2022-12-03T15:09:37.385Z,60.20
2022-12-03T15:12:08.034Z,60.30
2022-12-03T15:14:38.366Z,60.30
2022-12-03T15:17:08.771Z,60.30
2022-12-03T15:19:39.061Z,60.30
2022-12-03T15:22:09.326Z,60.30
2022-12-03T15:24:39.640Z,60.30
2022-12-03T15:27:09.944Z,60.30
2022-12-03T15:29:41.565Z,60.40
2022-12-03T15:32:11.797Z,60.40
2022-12-03T15:34:42.114Z,60.40
2022-12-03T15:37:29.320Z,60.40
2022-12-03T15:39:59.706Z,60.50
2022-12-03T15:42:31.419Z,60.50
2022-12-03T15:45:01.590Z,60.50
2022-12-03T15:47:31.804Z,60.50
2022-12-03T15:50:02.382Z,60.50
2022-12-03T15:52:32.702Z,60.60
2022-12-03T15:55:02.989Z,60.60
2022-12-03T15:57:33.186Z,60.50
2022-12-03T16:00:03.687Z,60.50
2022-12-03T16:02:36.874Z,60.50
2022-12-03T16:05:10.272Z,60.60
2022-12-03T16:07:41.236Z,60.60
2022-12-03T16:10:12.850Z,60.60
2022-12-03T16:12:43.114Z,60.60
2022-12-03T16:15:13.471Z,60.60
2022-12-03T16:17:43.747Z,60.60
2022-12-03T16:20:14.174Z,60.70
2022-12-03T16:22:44.425Z,60.60
2022-12-03T16:25:14.680Z,60.70
2022-12-03T16:27:45.197Z,60.60
2022-12-03T16:30:16.324Z,60.70
2022-12-03T16:32:46.613Z,60.70
2022-12-03T16:35:16.833Z,60.70
2022-12-03T16:37:47.093Z,60.70
2022-12-03T16:40:17.448Z,60.70
2022-12-03T16:42:47.712Z,60.70
2022-12-03T16:45:23.688Z,60.80
2022-12-03T16:47:53.955Z,60.80
2022-12-03T16:50:29.532Z,60.80
2022-12-03T16:53:00.882Z,60.70
2022-12-03T16:55:31.190Z,60.80
2022-12-03T16:58:01.386Z,60.80
2022-12-03T17:00:31.598Z,60.80
2022-12-03T17:03:02.027Z,60.70
2022-12-03T17:05:32.283Z,60.80
2022-12-03T17:08:02.669Z,60.80
2022-12-03T17:10:32.975Z,60.90
2022-12-03T17:13:10.952Z,60.80
2022-12-03T17:15:42.249Z,60.80
2022-12-03T17:18:12.679Z,60.80
2022-12-03T17:20:42.985Z,60.80
2022-12-03T17:23:13.600Z,60.80
2022-12-03T17:25:43.882Z,60.80
2022-12-03T17:28:14.147Z,60.80
2022-12-03T17:30:44.635Z,60.80
2022-12-03T17:33:14.872Z,60.80
2022-12-03T17:35:47.199Z,60.70
2022-12-03T17:38:19.331Z,60.80
2022-12-03T17:40:49.526Z,60.80
2022-12-03T17:43:19.806Z,60.80
2022-12-03T17:45:50.093Z,60.80
2022-12-03T17:48:20.292Z,60.80
2022-12-03T17:50:50.643Z,60.80
2022-12-03T17:53:20.864Z,60.80
2022-12-03T17:55:51.191Z,60.80
2022-12-03T17:58:21.478Z,60.80
2022-12-03T18:00:51.670Z,60.90
2022-12-03T18:03:21.853Z,60.80
2022-12-03T18:05:52.094Z,60.80
2022-12-03T18:08:31.013Z,60.80
2022-12-03T18:11:01.337Z,60.90
2022-12-03T18:13:31.552Z,60.80
2022-12-03T18:16:01.937Z,60.90
2022-12-03T18:18:32.284Z,60.90
2022-12-03T18:21:05.954Z,60.80
2022-12-03T18:23:36.889Z,60.80
2022-12-03T18:26:07.401Z,60.80
2022-12-03T18:28:37.755Z,60.80
2022-12-03T18:31:20.108Z,60.80
2022-12-03T18:33:51.386Z,60.80
2022-12-03T18:36:26.012Z,60.80
2022-12-03T18:38:57.976Z,60.80
2022-12-03T18:41:28.669Z,60.70
2022-12-03T18:43:59.132Z,60.70
2022-12-03T18:46:52.293Z,60.80
2022-12-03T18:49:19.696Z,60.80
2022-12-03T18:51:53.302Z,60.90
2022-12-03T18:54:27.818Z,60.90
2022-12-03T18:56:58.346Z,60.90
2022-12-03T18:59:28.733Z,60.90
2022-12-03T19:01:59.199Z,60.80
2022-12-03T19:04:29.895Z,60.90
2022-12-03T19:07:02.105Z,60.90
2022-12-03T19:09:32.476Z,60.90
2022-12-03T19:12:02.689Z,60.90
2022-12-03T19:14:32.934Z,60.90
2022-12-03T19:17:03.709Z,60.90
2022-12-03T19:19:34.167Z,60.90
2022-12-03T19:22:04.478Z,60.90
2022-12-03T19:24:34.914Z,60.90
2022-12-03T19:27:05.113Z,60.90
2022-12-03T19:29:35.340Z,60.90
2022-12-03T19:32:05.714Z,60.90
2022-12-03T19:34:36.116Z,60.90
2022-12-03T19:37:06.288Z,60.90
2022-12-03T19:39:36.620Z,60.90
2022-12-03T19:42:07.013Z,60.90
2022-12-03T19:44:37.279Z,60.90
2022-12-03T19:47:07.534Z,60.90
2022-12-03T19:49:37.794Z,61.00
2022-12-03T19:52:08.115Z,60.90
2022-12-03T19:54:38.311Z,60.90
2022-12-03T19:57:08.455Z,60.90
2022-12-03T19:59:38.730Z,61.00
2022-12-03T20:02:09.481Z,61.00
2022-12-03T20:04:40.548Z,61.00
2022-12-03T20:07:10.732Z,61.00
2022-12-03T20:09:41.005Z,61.00
2022-12-03T20:12:11.136Z,61.10
2022-12-03T20:14:41.561Z,61.10
2022-12-03T20:17:11.735Z,61.10
2022-12-03T20:19:42.048Z,61.10
2022-12-03T20:22:12.195Z,61.20
2022-12-03T20:24:42.533Z,61.20
2022-12-03T20:27:12.690Z,61.20
2022-12-03T20:29:42.848Z,61.30
2022-12-03T20:32:13.271Z,61.30
2022-12-03T20:34:45.955Z,61.30
2022-12-03T20:37:16.186Z,61.30
2022-12-03T20:39:46.489Z,61.30
2022-12-03T20:42:16.802Z,61.40
2022-12-03T20:44:47.060Z,61.40
2022-12-03T20:47:18.069Z,61.40
2022-12-03T20:49:48.982Z,61.40
2022-12-03T20:52:19.392Z,61.50
2022-12-03T20:54:49.660Z,61.50
2022-12-03T20:57:19.973Z,61.50
2022-12-03T20:59:50.208Z,61.50
2022-12-03T21:02:20.481Z,61.60
2022-12-03T21:04:50.885Z,61.60
2022-12-03T21:07:21.137Z,61.60
2022-12-03T21:09:51.514Z,61.60
2022-12-03T21:12:21.666Z,61.70
2022-12-03T21:14:51.974Z,61.70
2022-12-03T21:17:23.063Z,61.70
2022-12-03T21:19:53.436Z,61.80
2022-12-03T21:22:23.813Z,61.80
2022-12-03T21:24:53.996Z,61.80
2022-12-03T21:27:24.162Z,61.80
2022-12-03T21:29:54.625Z,61.90
2022-12-03T21:32:24.876Z,61.90
2022-12-03T21:34:55.092Z,61.90
2022-12-03T21:37:25.329Z,61.90
2022-12-03T21:39:55.794Z,62.00
2022-12-03T21:42:36.547Z,62.00
2022-12-03T21:45:08.656Z,62.00
2022-12-03T21:47:39.337Z,62.00
2022-12-03T21:50:12.821Z,62.10
2022-12-03T21:52:43.311Z,62.10
2022-12-03T21:55:14.156Z,62.10
2022-12-03T21:57:44.362Z,62.10
2022-12-03T22:00:15.561Z,62.10
2022-12-03T22:02:46.441Z,62.10
2022-12-03T22:05:16.686Z,62.10
2022-12-03T22:07:47.062Z,62.10
2022-12-03T22:10:17.805Z,62.10
2022-12-03T22:12:47.959Z,62.10
2022-12-03T22:15:19.397Z,62.10
2022-12-03T22:17:50.208Z,62.20
2022-12-03T22:20:20.903Z,62.20
2022-12-03T22:22:51.125Z,62.20
2022-12-03T22:25:21.307Z,62.20
2022-12-03T22:27:51.526Z,62.20
2022-12-03T22:30:21.845Z,62.30
2022-12-03T22:32:52.160Z,62.40
2022-12-03T22:35:22.393Z,62.60
2022-12-03T22:37:58.695Z,62.60
2022-12-03T22:40:28.929Z,62.60
2022-12-03T22:42:59.072Z,62.70
2022-12-03T22:45:29.242Z,62.70
2022-12-03T22:47:59.469Z,62.70
2022-12-03T22:50:30.657Z,62.90
2022-12-03T22:53:00.898Z,62.90
2022-12-03T22:55:31.101Z,62.90
2022-12-03T22:58:01.297Z,63.00
2022-12-03T23:00:37.297Z,63.10
2022-12-03T23:03:08.642Z,63.10
2022-12-03T23:05:41.372Z,63.20
2022-12-03T23:08:18.006Z,63.20
2022-12-03T23:10:51.041Z,63.30
2022-12-03T23:13:22.705Z,63.10
2022-12-03T23:15:55.353Z,63.30
2022-12-03T23:18:25.738Z,63.10
2022-12-03T23:20:57.645Z,63.00
2022-12-03T23:23:29.773Z,63.00
2022-12-03T23:26:08.082Z,62.80
2022-12-03T23:28:40.865Z,62.20
2022-12-03T23:31:26.879Z,61.50
2022-12-03T23:33:57.953Z,61.20
2022-12-03T23:36:31.703Z,61.30
2022-12-03T23:39:02.138Z,61.20
2022-12-03T23:41:32.404Z,61.20
2022-12-03T23:44:02.739Z,60.90
2022-12-03T23:46:33.030Z,60.40
2022-12-03T23:49:03.457Z,60.30
2022-12-03T23:51:33.691Z,60.50
2022-12-03T23:54:04.295Z,60.60
2022-12-03T23:56:34.619Z,60.60
2022-12-03T23:59:05.133Z,60.70
